createdAt,value
2018-05-07T00:00:31.162Z,-56
2018-05-07T00:10:27.685Z,-55
2018-05-07T00:20:25.839Z,-55
2018-05-07T00:30:28.227Z,-54
2018-05-07T00:40:28.658Z,-55
2018-05-07T00:50:27.183Z,-56
2018-05-07T01:00:25.281Z,-57
2018-05-07T01:10:26.788Z,-57
2018-05-07T01:21:27.178Z,-57
2018-05-07T01:31:25.432Z,-54
2018-05-07T01:41:30.520Z,-56
2018-05-07T01:50:26.403Z,-57
2018-05-07T02:00:30.746Z,-55
2018-05-07T02:10:25.440Z,-58
2018-05-07T02:21:30.543Z,-55
2018-05-07T02:31:32.731Z,-56
2018-05-07T02:40:25.686Z,-57
2018-05-07T02:51:33.576Z,-57
2018-05-07T03:00:27.810Z,-58
2018-05-07T03:10:28.375Z,-56
2018-05-07T03:20:27.784Z,-58
2018-05-07T03:30:30.010Z,-57
2018-05-07T03:40:27.392Z,-57
2018-05-07T03:51:31.557Z,-55
2018-05-07T04:00:26.927Z,-56
2018-05-07T04:10:25.518Z,-57
2018-05-07T04:20:28.804Z,-56
2018-05-07T04:30:28.420Z,-58
2018-05-07T04:40:29.643Z,-58
2018-05-07T04:50:57.242Z,-55
2018-05-07T05:00:29.653Z,-56
2018-05-07T05:10:26.251Z,-56
2018-05-07T05:21:31.210Z,-58
2018-05-07T05:30:36.905Z,-56
2018-05-07T05:41:24.327Z,-58
2018-05-07T05:50:29.902Z,-55
2018-05-07T06:00:26.938Z,-55
2018-05-07T06:10:26.193Z,-57
2018-05-07T06:20:27.118Z,-56
2018-05-07T06:30:17.295Z,-57
2018-05-07T06:40:16.158Z,-54
2018-05-07T06:50:16.079Z,-59
2018-05-07T07:00:16.104Z,-62
2018-05-07T07:10:16.100Z,-62
2018-05-07T07:20:16.197Z,-64
2018-05-07T07:30:15.945Z,-63
2018-05-07T07:40:15.998Z,-63
2018-05-07T07:50:16.162Z,-63
2018-05-07T08:00:15.986Z,-65
2018-05-07T08:10:16.084Z,-64
2018-05-07T08:20:16.048Z,-63
2018-05-07T08:30:16.026Z,-65
2018-05-07T08:40:16.054Z,-64
2018-05-07T08:50:16.012Z,-63
2018-05-07T09:00:16.050Z,-61
2018-05-07T09:10:16.023Z,-60
2018-05-07T09:20:16.049Z,-61
2018-05-07T09:30:16.183Z,-60
2018-05-07T09:40:16.132Z,-61
2018-05-07T09:50:24.906Z,-60
2018-05-07T10:00:26.307Z,-60
2018-05-07T10:10:51.033Z,-59
2018-05-07T10:20:16.929Z,-59
2018-05-07T10:30:16.110Z,-61
2018-05-07T10:40:16.139Z,-60
2018-05-07T10:50:16.092Z,-60
2018-05-07T11:00:16.072Z,-60
2018-05-07T11:10:16.133Z,-59
2018-05-07T11:20:16.255Z,-58
2018-05-07T11:30:16.135Z,-60
2018-05-07T11:40:16.252Z,-60
2018-05-07T11:50:16.214Z,-58
2018-05-07T12:00:16.160Z,-59
2018-05-07T12:10:16.764Z,-60
2018-05-07T12:20:16.167Z,-59
2018-05-07T12:30:16.189Z,-60
2018-05-07T12:40:16.154Z,-61
2018-05-07T12:50:16.903Z,-59
2018-05-07T13:00:16.310Z,-60
2018-05-07T13:10:16.229Z,-59
2018-05-07T13:20:16.861Z,-59
2018-05-07T13:30:16.281Z,-60
2018-05-07T13:40:16.679Z,-60
2018-05-07T13:50:16.159Z,-61
2018-05-07T14:00:17.143Z,-60
2018-05-07T14:10:16.895Z,-58
2018-05-07T14:20:17.199Z,-59
2018-05-07T14:30:16.242Z,-60
2018-05-07T14:40:16.279Z,-59
2018-05-07T14:50:16.256Z,-60
2018-05-07T15:00:16.168Z,-60
2018-05-07T15:10:17.030Z,-60
2018-05-07T15:20:16.233Z,-60
2018-05-07T15:30:16.141Z,-60
2018-05-07T15:40:16.113Z,-60
2018-05-07T15:50:16.235Z,-60
2018-05-07T16:00:16.264Z,-58
2018-05-07T16:10:16.270Z,-59
2018-05-07T16:20:16.504Z,-60
2018-05-07T16:30:16.458Z,-59
2018-05-07T16:40:16.554Z,-61
2018-05-07T16:50:16.444Z,-60
2018-05-07T17:00:16.210Z,-61
2018-05-07T17:10:16.354Z,-61
2018-05-07T17:20:16.233Z,-61
2018-05-07T17:30:16.313Z,-62
2018-05-07T17:40:17.645Z,-61
2018-05-07T17:50:17.639Z,-60
2018-05-07T18:00:16.555Z,-61
2018-05-07T18:10:16.264Z,-61
2018-05-07T18:20:16.173Z,-61
2018-05-07T18:30:16.457Z,-61
2018-05-07T18:40:16.347Z,-62
2018-05-07T18:50:16.664Z,-59
2018-05-07T19:00:16.742Z,-61
2018-05-07T19:10:17.051Z,-62
2018-05-07T19:20:16.181Z,-60
2018-05-07T19:30:16.175Z,-60
2018-05-07T19:40:16.663Z,-60
2018-05-07T19:50:17.189Z,-61
2018-05-07T20:00:16.266Z,-57
2018-05-07T20:10:16.197Z,-60
2018-05-07T20:20:16.357Z,-61
2018-05-07T20:30:16.248Z,-60
2018-05-07T20:40:16.402Z,-60
2018-05-07T20:50:17.423Z,-65
2018-05-07T21:00:18.137Z,-65
2018-05-07T21:10:16.679Z,-59
2018-05-07T21:20:17.403Z,-59
2018-05-07T21:30:19.203Z,-58
2018-05-07T21:40:16.530Z,-59
2018-05-07T21:50:17.615Z,-59
2018-05-07T22:00:17.067Z,-57
2018-05-07T22:10:17.255Z,-59
2018-05-07T22:20:16.972Z,-58
2018-05-07T22:30:16.538Z,-59
2018-05-07T22:40:17.644Z,-58
2018-05-07T22:50:16.692Z,-59
2018-05-07T23:00:16.814Z,-59
2018-05-07T23:10:17.103Z,-60
2018-05-07T23:20:16.267Z,-60
2018-05-07T23:30:24.001Z,-60
2018-05-07T23:40:16.155Z,-59
2018-05-07T23:50:16.171Z,-60
